Terminal Aerodrome Forecast
Issued by NWS

Home | Current Version | Previous Version | Text Only | Print | Product List | Glossary On
Versions: 1 2 3 4 5 6 7 8 9 10 11 12 13 14 15 16 17 18 19 20 21 22 23 24 25
172
FTUS43 KDLH 241142
TAFHIB
TAF
KHIB 241142Z 2412/2512 36008KT P6SM OVC160
     FM241800 35013G19KT P6SM SCT025 OVC140
     FM250200 24014G22KT P6SM SCT020=

USA.gov is the U.S. government's official web portal to all federal, state and local government web resources and services.